Аэропорт: Чебоксары. Чебоксары

ICAO: UWKS

METAR:
2024-04-22 22:00:00
UWKS 222200Z 02002MPS 9999 FEW040 13/13 Q1017 R24/090060 NOSIG RMK QFE748
TAF:
2024-04-22 19:34:00
TAF UWKS 221934Z 2221/2306 31003G08MPS 9999 BKN040CB TX14/2306Z TN10/2303Z